Weather at Helena Regional Airport

Public forecast

Using degrees Fahrenheit for public forecast. Weather courtesy of forecast.io.

Current aviation weather report (METAR) for Helena Regional Airport

Report is more than 6 hours old.

2022/11/14 14:53 (retrieved 2 years ago)

KHLN 141453Z 00000KT 4SM HZ OVC030 M07/M09 A3031 RMK AO2 SNE20 SLP340 P0000 60000 T10671094 53006

Aviation forecast (TAF) for Helena Regional Airport

Forecast is more than 12 hours old.

2023/02/22 18:45 (retrieved 1 year ago)

TAF KHLN 221742Z 2218/2318 36016G25KT 3SM -SN BLSN OVC025 TEMPO 2218/2222 2SM -SN BLSN OVC010 FM222200 36017G27KT 5SM BLSN OVC025 TEMPO 2222/2302 2SM -SN BLSN OVC015 FM230300 35013G27KT 5SM BLSN BKN015 PROB30 2303/2306 4SM -SN BR OVC010 FM231300 35009KT P6SM BKN025